createdAt,value
2018-01-18T00:00:33.389Z,6.50
2018-01-18T00:03:00.493Z,19.73
2018-01-18T00:05:26.678Z,12.43
2018-01-18T00:07:52.978Z,16.60
2018-01-18T00:10:19.218Z,6.30
2018-01-18T00:12:46.223Z,10.73
2018-01-18T00:15:12.482Z,13.03
2018-01-18T00:17:39.486Z,15.90
2018-01-18T00:20:05.710Z,11.03
2018-01-18T00:22:31.982Z,15.30
2018-01-18T00:24:58.979Z,11.90
2018-01-18T00:27:25.181Z,6.97
2018-01-18T00:29:51.449Z,10.50
2018-01-18T00:32:17.664Z,12.10
2018-01-18T00:34:43.963Z,10.43
2018-01-18T00:37:10.242Z,12.17
2018-01-18T00:39:37.123Z,9.47
2018-01-18T00:42:04.123Z,8.97
2018-01-18T00:44:30.299Z,17.67
2018-01-18T00:46:56.561Z,17.63
2018-01-18T00:49:22.911Z,5.00
2018-01-18T00:51:49.772Z,7.77
2018-01-18T00:54:16.726Z,12.73
2018-01-18T00:56:43.007Z,10.23
2018-01-18T00:59:09.173Z,10.43
2018-01-18T01:01:36.108Z,7.97
2018-01-18T01:04:03.443Z,7.90
2018-01-18T01:06:29.647Z,15.30
2018-01-18T01:08:55.828Z,7.17
2018-01-18T01:11:22.011Z,15.40
2018-01-18T01:13:48.144Z,11.10
2018-01-18T01:16:14.386Z,8.37
2018-01-18T01:18:41.035Z,9.80
2018-01-18T01:21:08.122Z,6.17
2018-01-18T01:23:34.378Z,6.90
2018-01-18T01:26:00.544Z,21.60
2018-01-18T01:28:27.594Z,13.00
2018-01-18T01:30:54.462Z,19.30
2018-01-18T01:33:20.663Z,8.73
2018-01-18T01:35:46.863Z,12.40
2018-01-18T01:38:13.778Z,7.83
2018-01-18T01:40:39.966Z,7.50
2018-01-18T01:43:06.132Z,14.30
2018-01-18T01:45:32.380Z,9.10
2018-01-18T01:47:58.624Z,16.37
2018-01-18T01:50:25.477Z,6.33
2018-01-18T01:52:51.697Z,7.63
2018-01-18T01:55:18.592Z,7.57
2018-01-18T01:57:44.775Z,7.83
2018-01-18T02:00:11.090Z,17.07
2018-01-18T02:02:37.295Z,11.43
2018-01-18T02:05:04.215Z,8.73
2018-01-18T02:07:30.395Z,11.37
2018-01-18T02:09:56.675Z,12.83
2018-01-18T02:12:22.849Z,10.20
2018-01-18T02:14:49.276Z,11.63
2018-01-18T02:17:16.148Z,13.53
2018-01-18T02:19:42.296Z,16.63
2018-01-18T02:22:08.646Z,8.00
2018-01-18T02:24:34.801Z,10.93
2018-01-18T02:27:01.710Z,8.00
2018-01-18T02:29:28.559Z,11.60
2018-01-18T02:31:54.796Z,15.67
2018-01-18T02:34:21.679Z,8.73
2018-01-18T02:36:47.836Z,5.37
2018-01-18T02:39:14.052Z,14.30
2018-01-18T02:41:40.299Z,8.70
2018-01-18T02:44:08.069Z,13.40
2018-01-18T02:46:34.280Z,3.77
2018-01-18T02:49:00.572Z,9.63
2018-01-18T02:51:26.934Z,14.10
2018-01-18T02:53:53.154Z,5.77
2018-01-18T02:56:19.254Z,10.70
2018-01-18T02:58:45.462Z,4.73
2018-01-18T03:01:11.868Z,10.60
2018-01-18T03:03:38.976Z,14.97
2018-01-18T03:06:05.118Z,13.07
2018-01-18T03:08:31.374Z,7.53
2018-01-18T03:10:57.528Z,7.13
2018-01-18T03:13:23.675Z,9.57
2018-01-18T03:15:49.841Z,9.00
2018-01-18T03:18:16.760Z,18.03
2018-01-18T03:20:42.975Z,8.70
2018-01-18T03:23:09.124Z,6.83
2018-01-18T03:25:36.054Z,4.30
2018-01-18T03:28:02.187Z,11.40
2018-01-18T03:30:29.939Z,13.00
2018-01-18T03:32:56.216Z,8.40
2018-01-18T03:35:22.479Z,13.83
2018-01-18T03:37:48.634Z,9.10
2018-01-18T03:40:14.806Z,11.30
2018-01-18T03:42:41.147Z,7.07
2018-01-18T03:45:07.287Z,13.27
2018-01-18T03:47:33.712Z,4.10
2018-01-18T03:49:59.852Z,13.27
2018-01-18T03:52:26.203Z,19.73
2018-01-18T03:54:52.364Z,12.37
2018-01-18T03:57:18.719Z,10.63
2018-01-18T03:59:44.896Z,10.80
2018-01-18T04:02:11.847Z,7.40
2018-01-18T04:04:38.823Z,14.27
2018-01-18T04:07:05.100Z,7.57
2018-01-18T04:09:32.122Z,4.50
2018-01-18T04:11:58.284Z,11.03
2018-01-18T04:14:26.440Z,7.70
2018-01-18T04:16:52.660Z,8.47
2018-01-18T04:19:19.610Z,4.30
2018-01-18T04:21:45.744Z,12.03
2018-01-18T04:24:12.627Z,13.10
2018-01-18T04:26:38.808Z,7.73
2018-01-18T04:29:04.921Z,6.33
2018-01-18T04:31:31.245Z,6.90
2018-01-18T04:33:57.527Z,3.13
2018-01-18T04:36:23.789Z,7.67
2018-01-18T04:38:49.930Z,5.77
2018-01-18T04:41:16.966Z,3.07
2018-01-18T04:43:43.281Z,5.00
2018-01-18T04:46:09.614Z,2.77
2018-01-18T04:48:35.816Z,3.47
2018-01-18T04:51:02.297Z,2.50
2018-01-18T04:53:28.511Z,0.70
2018-01-18T04:55:55.428Z,2.67
2018-01-18T04:58:21.636Z,5.47
2018-01-18T05:00:47.770Z,1.43
2018-01-18T05:03:13.978Z,2.20
2018-01-18T05:05:40.096Z,3.27
2018-01-18T05:08:07.381Z,0.67
2018-01-18T05:10:33.601Z,0.83
2018-01-18T05:12:59.934Z,0.70
2018-01-18T05:15:26.021Z,3.33
2018-01-18T05:17:52.936Z,9.10
2018-01-18T05:20:19.193Z,3.10
2018-01-18T05:22:45.359Z,1.40
2018-01-18T05:25:11.625Z,4.20
2018-01-18T05:27:37.831Z,1.03
2018-01-18T05:30:04.098Z,1.17
2018-01-18T05:32:30.248Z,0.50
2018-01-18T05:34:56.504Z,0.30
2018-01-18T05:37:23.149Z,0.87
2018-01-18T05:39:49.337Z,1.23
2018-01-18T05:42:15.564Z,0.50
2018-01-18T05:44:41.762Z,1.17
2018-01-18T05:47:08.875Z,0.20
2018-01-18T05:49:35.028Z,0.33
2018-01-18T05:52:02.010Z,0.27
2018-01-18T05:54:28.407Z,0.57
2018-01-18T05:56:55.343Z,0.27
2018-01-18T05:59:22.261Z,2.47
2018-01-18T06:01:48.458Z,0.20
2018-01-18T06:04:14.939Z,0.70
2018-01-18T06:06:41.823Z,0.67
2018-01-18T06:09:08.101Z,0.40
2018-01-18T06:11:35.023Z,2.40
2018-01-18T06:14:01.393Z,0.30
2018-01-18T06:16:28.303Z,2.00
2018-01-18T06:18:54.462Z,0.50
2018-01-18T06:21:21.367Z,0.27
2018-01-18T06:23:47.677Z,0.30
2018-01-18T06:26:13.961Z,0.20
2018-01-18T06:28:40.847Z,0.30
2018-01-18T06:31:07.023Z,1.60
2018-01-18T06:33:33.880Z,0.20
2018-01-18T06:36:00.083Z,0.30
2018-01-18T06:38:26.278Z,0.20
2018-01-18T06:40:52.413Z,0.20
2018-01-18T06:43:18.639Z,0.20
2018-01-18T06:45:44.859Z,0.20
2018-01-18T06:48:11.126Z,0.20
2018-01-18T06:50:38.054Z,0.20
2018-01-18T06:53:04.301Z,0.20
2018-01-18T06:55:30.444Z,0.60
2018-01-18T06:57:56.708Z,0.20
2018-01-18T07:00:22.863Z,1.70
2018-01-18T07:02:49.722Z,1.03
2018-01-18T07:05:15.884Z,0.30
2018-01-18T07:07:42.005Z,0.20
2018-01-18T07:10:08.197Z,2.20
2018-01-18T07:12:34.368Z,0.20
2018-01-18T07:15:00.896Z,0.20
2018-01-18T07:17:28.583Z,0.20
2018-01-18T07:19:54.834Z,0.20
2018-01-18T07:22:21.745Z,0.17
2018-01-18T07:24:47.939Z,0.20
2018-01-18T07:27:14.074Z,0.20
2018-01-18T07:29:40.342Z,1.07
2018-01-18T07:32:06.742Z,0.20
2018-01-18T07:34:32.964Z,0.20
2018-01-18T07:36:59.234Z,0.10
2018-01-18T07:39:25.437Z,0.20
2018-01-18T07:41:51.598Z,0.17
2018-01-18T07:44:17.823Z,1.27
2018-01-18T07:46:45.040Z,0.20
2018-01-18T07:49:11.234Z,0.20
2018-01-18T07:51:37.363Z,0.20
2018-01-18T07:54:03.600Z,2.73
2018-01-18T07:56:29.866Z,0.20
2018-01-18T07:58:56.827Z,0.37
2018-01-18T08:01:22.991Z,0.20
2018-01-18T08:03:55.603Z,0.10
2018-01-18T08:06:21.696Z,0.10
2018-01-18T08:08:47.890Z,0.20
2018-01-18T08:11:14.146Z,0.20
2018-01-18T08:13:41.870Z,0.20
2018-01-18T08:16:08.880Z,0.10
2018-01-18T08:18:35.960Z,0.20
2018-01-18T08:21:02.230Z,0.10
2018-01-18T08:23:28.397Z,0.20
2018-01-18T08:25:55.301Z,0.20
2018-01-18T08:28:21.620Z,0.20
2018-01-18T08:30:47.791Z,0.20
2018-01-18T08:33:14.793Z,0.50
2018-01-18T08:35:41.138Z,0.20
2018-01-18T08:38:07.320Z,0.20
2018-01-18T08:40:33.486Z,0.20
2018-01-18T08:42:59.639Z,0.20
2018-01-18T08:45:26.593Z,0.20
2018-01-18T08:47:53.521Z,0.20
2018-01-18T08:50:20.477Z,0.30
2018-01-18T08:52:47.362Z,0.73
2018-01-18T08:55:13.548Z,0.20
2018-01-18T08:57:40.563Z,0.20
2018-01-18T09:00:06.720Z,0.20
2018-01-18T09:02:33.604Z,0.30
2018-01-18T09:04:59.843Z,0.20
2018-01-18T09:07:26.001Z,0.23
2018-01-18T09:09:52.949Z,0.37
2018-01-18T09:12:19.855Z,0.20
2018-01-18T09:14:46.178Z,0.20
2018-01-18T09:17:12.301Z,0.20
2018-01-18T09:19:38.462Z,0.20
2018-01-18T09:22:04.595Z,0.20
2018-01-18T09:24:31.497Z,0.20
2018-01-18T09:26:57.856Z,0.20
2018-01-18T09:29:24.064Z,0.20
2018-01-18T09:31:50.238Z,0.73
2018-01-18T09:34:16.442Z,0.20
2018-01-18T09:36:43.305Z,0.20
2018-01-18T09:39:09.421Z,0.20
2018-01-18T09:41:36.409Z,0.20
2018-01-18T09:44:02.739Z,0.20
2018-01-18T09:46:28.994Z,0.50
2018-01-18T09:48:56.407Z,0.40
2018-01-18T09:51:22.828Z,0.77
2018-01-18T09:53:48.999Z,0.60
2018-01-18T09:56:15.168Z,0.33
2018-01-18T09:58:41.339Z,1.30
2018-01-18T10:01:07.447Z,0.20
2018-01-18T10:03:33.818Z,0.20
2018-01-18T10:06:00.975Z,0.20
2018-01-18T10:08:27.939Z,0.20
2018-01-18T10:10:54.144Z,0.20
2018-01-18T10:13:21.020Z,0.20
2018-01-18T10:15:47.164Z,0.20
2018-01-18T10:18:13.329Z,0.20
2018-01-18T10:20:40.243Z,0.30
2018-01-18T10:23:06.566Z,0.20
2018-01-18T10:25:32.752Z,0.20
2018-01-18T10:27:59.106Z,0.30
2018-01-18T10:30:25.346Z,0.17
2018-01-18T10:32:51.540Z,0.20
2018-01-18T10:35:17.722Z,0.20
2018-01-18T10:37:44.861Z,1.53
2018-01-18T10:40:11.075Z,0.30
2018-01-18T10:42:37.368Z,0.33
2018-01-18T10:45:03.543Z,0.60
2018-01-18T10:47:30.083Z,1.37
2018-01-18T10:49:58.009Z,2.73
2018-01-18T10:52:24.954Z,0.70
2018-01-18T10:54:51.177Z,0.20
2018-01-18T10:57:17.332Z,0.20
2018-01-18T10:59:43.725Z,1.70
2018-01-18T11:02:10.114Z,0.20
2018-01-18T11:04:36.396Z,0.20
2018-01-18T11:07:02.741Z,0.30
2018-01-18T11:09:28.979Z,0.77
2018-01-18T11:11:55.612Z,0.77
2018-01-18T11:14:21.874Z,2.63
2018-01-18T11:16:49.085Z,1.27
2018-01-18T11:19:15.552Z,0.60
2018-01-18T11:21:42.575Z,2.03
2018-01-18T11:24:09.523Z,2.00
2018-01-18T11:26:36.646Z,3.20
2018-01-18T11:29:02.955Z,0.93
2018-01-18T11:31:29.119Z,3.60
2018-01-18T11:33:55.467Z,2.30
2018-01-18T11:36:21.659Z,1.17
2018-01-18T11:38:47.918Z,1.50
2018-01-18T11:41:14.188Z,2.33
2018-01-18T11:43:40.773Z,0.63
2018-01-18T11:46:07.856Z,1.70
2018-01-18T11:48:33.976Z,5.20
2018-01-18T11:51:00.239Z,0.87
2018-01-18T11:53:26.502Z,1.70
2018-01-18T11:55:52.675Z,1.27
2018-01-18T11:58:18.970Z,0.40
2018-01-18T12:00:47.532Z,2.03
2018-01-18T12:03:13.792Z,2.90
2018-01-18T12:05:40.208Z,0.50
2018-01-18T12:08:07.325Z,3.83
2018-01-18T12:10:33.680Z,3.13
2018-01-18T12:12:59.848Z,3.93
2018-01-18T12:15:26.010Z,3.37
2018-01-18T12:17:52.327Z,18.97
2018-01-18T12:20:18.566Z,0.53
2018-01-18T12:22:46.331Z,2.53
2018-01-18T12:25:12.454Z,3.10
2018-01-18T12:27:38.708Z,1.40
2018-01-18T12:30:05.682Z,2.60
2018-01-18T12:32:31.866Z,2.93
2018-01-18T12:34:58.058Z,4.43
2018-01-18T12:37:24.228Z,2.37
2018-01-18T12:39:51.128Z,4.90
2018-01-18T12:42:18.181Z,1.63
2018-01-18T12:44:44.365Z,3.67
2018-01-18T12:47:10.523Z,3.80
2018-01-18T12:49:36.739Z,3.40
2018-01-18T12:52:02.945Z,7.20
2018-01-18T12:54:29.233Z,5.53
2018-01-18T12:56:57.071Z,6.70
2018-01-18T12:59:23.219Z,3.27
2018-01-18T13:01:49.359Z,3.80
2018-01-18T13:04:16.325Z,4.20
2018-01-18T13:06:42.450Z,2.77
2018-01-18T13:09:08.640Z,2.57
2018-01-18T13:11:36.211Z,8.43
2018-01-18T13:14:02.503Z,7.87
2018-01-18T13:16:28.682Z,4.13
2018-01-18T13:18:55.767Z,4.00
2018-01-18T13:21:21.978Z,1.53
2018-01-18T13:23:48.330Z,5.27
2018-01-18T13:26:14.580Z,5.87
2018-01-18T13:28:40.892Z,3.70
2018-01-18T13:31:07.231Z,2.03
2018-01-18T13:33:33.618Z,2.10
2018-01-18T13:35:59.779Z,4.47
2018-01-18T13:38:26.018Z,2.77
2018-01-18T13:40:53.146Z,0.63
2018-01-18T13:43:19.323Z,3.20
2018-01-18T13:45:46.186Z,7.30
2018-01-18T13:48:12.320Z,6.63
2018-01-18T13:50:38.475Z,7.00
2018-01-18T13:53:05.421Z,0.67
2018-01-18T13:55:31.586Z,5.40
2018-01-18T13:57:58.513Z,10.77
2018-01-18T14:00:25.528Z,4.67
2018-01-18T14:02:51.706Z,0.63
2018-01-18T14:05:17.882Z,1.37
2018-01-18T14:07:44.022Z,2.10
2018-01-18T14:10:10.205Z,3.33
2018-01-18T14:12:36.341Z,0.80
2018-01-18T14:15:02.476Z,2.27
2018-01-18T14:17:28.615Z,0.57
2018-01-18T14:19:55.552Z,5.37
2018-01-18T14:22:23.258Z,3.03
2018-01-18T14:24:49.509Z,1.60
2018-01-18T14:27:15.710Z,2.43
2018-01-18T14:29:41.962Z,1.40
2018-01-18T14:32:08.143Z,1.13
2018-01-18T14:34:34.453Z,1.43
2018-01-18T14:37:02.240Z,2.27
2018-01-18T14:39:29.272Z,2.43
2018-01-18T14:41:55.589Z,1.10
2018-01-18T14:44:22.517Z,2.23
2018-01-18T14:46:48.647Z,1.07
2018-01-18T14:49:14.908Z,3.63
2018-01-18T14:51:41.195Z,1.00
2018-01-18T14:54:07.528Z,1.07
2018-01-18T14:56:33.684Z,0.50
2018-01-18T14:58:59.831Z,1.27
2018-01-18T15:01:26.099Z,0.47
2018-01-18T15:03:52.912Z,2.13
2018-01-18T15:06:19.146Z,0.30
2018-01-18T15:08:46.301Z,0.40
2018-01-18T15:11:12.514Z,1.50
2018-01-18T15:13:38.781Z,0.43
2018-01-18T15:16:05.004Z,1.53
2018-01-18T15:18:31.244Z,0.73
2018-01-18T15:20:57.442Z,2.53
2018-01-18T15:23:23.674Z,1.43
2018-01-18T15:25:49.822Z,7.73
2018-01-18T15:28:17.371Z,0.60
2018-01-18T15:30:43.581Z,0.60
2018-01-18T15:33:11.242Z,0.60
2018-01-18T15:35:37.481Z,0.40
2018-01-18T15:38:03.649Z,1.33
2018-01-18T15:40:30.005Z,0.80
2018-01-18T15:42:56.544Z,1.03
2018-01-18T15:45:22.950Z,1.93
2018-01-18T15:47:49.219Z,3.60
2018-01-18T15:50:16.341Z,3.67
2018-01-18T15:52:42.715Z,2.03
2018-01-18T15:55:09.752Z,1.80
2018-01-18T15:57:35.981Z,0.70
2018-01-18T16:00:02.241Z,1.60
2018-01-18T16:02:28.567Z,0.73
2018-01-18T16:04:54.734Z,2.00
2018-01-18T16:07:21.071Z,1.77
2018-01-18T16:09:47.263Z,0.60
2018-01-18T16:12:13.628Z,2.80
2018-01-18T16:14:41.627Z,4.77
2018-01-18T16:17:08.749Z,0.97
2018-01-18T16:19:35.770Z,0.87
2018-01-18T16:22:02.148Z,3.67
2018-01-18T16:24:29.214Z,2.03
2018-01-18T16:26:55.370Z,1.37
2018-01-18T16:29:21.500Z,1.63
2018-01-18T16:31:47.738Z,0.57
2018-01-18T16:34:14.802Z,1.03
2018-01-18T16:36:41.001Z,0.80
2018-01-18T16:39:07.221Z,1.10
2018-01-18T16:41:33.504Z,2.53
2018-01-18T16:44:00.462Z,0.80
2018-01-18T16:46:26.762Z,0.70
2018-01-18T16:48:52.949Z,1.43
2018-01-18T16:51:19.261Z,0.40
2018-01-18T16:53:45.671Z,2.90
2018-01-18T16:56:11.837Z,0.40
2018-01-18T16:58:38.186Z,0.60
2018-01-18T17:01:04.382Z,0.40
2018-01-18T17:03:30.548Z,0.47
2018-01-18T17:05:56.751Z,0.40
2018-01-18T17:08:23.109Z,0.83
2018-01-18T17:10:49.627Z,2.17
2018-01-18T17:13:17.944Z,1.80
2018-01-18T17:15:45.140Z,1.63
2018-01-18T17:18:12.893Z,1.63
2018-01-18T17:20:40.577Z,1.87
2018-01-18T17:23:08.677Z,1.83
2018-01-18T17:25:35.858Z,1.00
2018-01-18T17:28:02.763Z,2.50
2018-01-18T17:30:29.738Z,1.27
2018-01-18T17:32:56.102Z,11.53
2018-01-18T17:35:22.327Z,1.40
2018-01-18T17:37:48.802Z,0.60
2018-01-18T17:40:15.907Z,0.97
2018-01-18T17:42:43.073Z,1.50
2018-01-18T17:45:10.002Z,1.63
2018-01-18T17:47:36.380Z,1.20
2018-01-18T17:50:03.353Z,1.40
2018-01-18T17:52:29.535Z,2.43
2018-01-18T17:54:56.873Z,2.47
2018-01-18T17:57:30.323Z,2.27
2018-01-18T17:59:56.679Z,0.83
2018-01-18T18:02:23.001Z,2.17
2018-01-18T18:04:49.369Z,1.07
2018-01-18T18:07:16.380Z,1.70
2018-01-18T18:09:42.656Z,0.70
2018-01-18T18:12:09.738Z,0.90
2018-01-18T18:14:36.097Z,2.43
2018-01-18T18:17:02.365Z,1.30
2018-01-18T18:19:28.656Z,0.57
2018-01-18T18:21:54.964Z,1.50
2018-01-18T18:24:21.342Z,0.50
2018-01-18T18:26:48.294Z,1.53
2018-01-18T18:29:15.296Z,1.70
2018-01-18T18:31:41.593Z,0.87
2018-01-18T18:34:08.493Z,0.77
2018-01-18T18:36:34.603Z,2.40
2018-01-18T18:39:00.776Z,1.10
2018-01-18T18:41:27.038Z,6.27
2018-01-18T18:43:53.359Z,1.20
2018-01-18T18:46:19.610Z,1.50
2018-01-18T18:48:45.783Z,1.70
2018-01-18T18:51:12.004Z,3.37
2018-01-18T18:53:38.416Z,2.10
2018-01-18T18:56:05.286Z,0.67
2018-01-18T18:58:31.483Z,1.80
2018-01-18T19:00:58.370Z,4.40
2018-01-18T19:03:24.577Z,1.70
2018-01-18T19:05:50.880Z,1.33
2018-01-18T19:08:17.886Z,0.70
2018-01-18T19:10:44.172Z,1.30
2018-01-18T19:13:10.487Z,2.63
2018-01-18T19:15:36.731Z,0.90
2018-01-18T19:18:02.940Z,0.70
2018-01-18T19:20:30.067Z,1.20
2018-01-18T19:22:56.297Z,0.60
2018-01-18T19:25:22.651Z,0.97
2018-01-18T19:27:48.928Z,2.70
2018-01-18T19:30:15.152Z,2.83
2018-01-18T19:32:41.406Z,4.50
2018-01-18T19:35:07.796Z,1.90
2018-01-18T19:37:34.101Z,1.57
2018-01-18T19:40:00.271Z,7.40
2018-01-18T19:42:26.599Z,1.20
2018-01-18T19:44:52.922Z,1.97
2018-01-18T19:47:19.156Z,1.10
2018-01-18T19:49:45.386Z,1.33
2018-01-18T19:52:11.861Z,4.50
2018-01-18T19:54:39.179Z,0.73
2018-01-18T19:57:06.917Z,2.27
2018-01-18T19:59:33.418Z,1.20
2018-01-18T20:01:59.725Z,0.70
2018-01-18T20:04:26.752Z,0.60
2018-01-18T20:06:54.434Z,1.90
2018-01-18T20:09:21.366Z,4.67
2018-01-18T20:11:47.587Z,0.80
2018-01-18T20:14:14.669Z,0.50
2018-01-18T20:16:40.837Z,1.30
2018-01-18T20:19:07.103Z,0.50
2018-01-18T20:21:34.101Z,1.03
2018-01-18T20:24:00.367Z,1.07
2018-01-18T20:26:27.256Z,3.63
2018-01-18T20:28:53.709Z,0.60
2018-01-18T20:31:20.067Z,3.17
2018-01-18T20:33:46.531Z,0.50
2018-01-18T20:36:12.976Z,1.23
2018-01-18T20:38:39.207Z,0.83
2018-01-18T20:41:05.694Z,1.03
2018-01-18T20:43:31.867Z,2.67
2018-01-18T20:45:59.276Z,0.40
2018-01-18T20:48:25.582Z,0.70
2018-01-18T20:50:51.798Z,0.80
2018-01-18T20:53:17.934Z,1.13
2018-01-18T20:55:44.152Z,0.67
2018-01-18T20:58:10.583Z,0.73
2018-01-18T21:00:37.008Z,2.63
2018-01-18T21:03:03.449Z,1.10
2018-01-18T21:05:29.789Z,0.67
2018-01-18T21:07:56.119Z,0.80
2018-01-18T21:10:23.161Z,4.00
2018-01-18T21:12:49.441Z,1.43
2018-01-18T21:15:15.684Z,1.27
2018-01-18T21:17:48.956Z,2.13
2018-01-18T21:20:15.338Z,2.33
2018-01-18T21:22:41.554Z,1.80
2018-01-18T21:25:07.891Z,2.60
2018-01-18T21:27:34.073Z,1.30
2018-01-18T21:30:00.476Z,5.43
2018-01-18T21:32:27.540Z,0.73
2018-01-18T21:34:53.834Z,3.07
2018-01-18T21:37:20.863Z,1.00
2018-01-18T21:39:47.119Z,0.73
2018-01-18T21:42:14.196Z,4.30
2018-01-18T21:44:40.405Z,0.77
2018-01-18T21:47:07.386Z,2.47
2018-01-18T21:49:33.670Z,1.83
2018-01-18T21:52:00.725Z,2.63
2018-01-18T21:54:27.751Z,1.13
2018-01-18T21:56:54.686Z,5.10
2018-01-18T21:59:21.723Z,0.50
2018-01-18T22:01:49.396Z,2.40
2018-01-18T22:04:15.608Z,3.00
2018-01-18T22:06:43.451Z,1.07
2018-01-18T22:09:09.710Z,0.77
2018-01-18T22:11:37.502Z,2.93
2018-01-18T22:14:03.789Z,0.50
2018-01-18T22:16:30.017Z,0.60
2018-01-18T22:18:56.136Z,1.07
2018-01-18T22:21:22.318Z,1.83
2018-01-18T22:23:48.694Z,3.90
2018-01-18T22:26:14.917Z,1.50
2018-01-18T22:28:41.235Z,3.77
2018-01-18T22:31:07.484Z,3.10
2018-01-18T22:33:33.709Z,1.17
2018-01-18T22:35:59.929Z,1.83
2018-01-18T22:38:26.282Z,1.60
2018-01-18T22:40:52.448Z,3.20
2018-01-18T22:43:18.595Z,5.00
2018-01-18T22:45:44.894Z,1.40
2018-01-18T22:48:11.174Z,1.47
2018-01-18T22:50:37.392Z,3.40
2018-01-18T22:53:04.167Z,0.77
2018-01-18T22:55:30.436Z,1.27
2018-01-18T22:57:56.940Z,1.27
2018-01-18T23:00:23.261Z,0.80
2018-01-18T23:02:50.267Z,4.00
2018-01-18T23:05:16.503Z,2.63
2018-01-18T23:07:42.988Z,1.50
2018-01-18T23:10:09.361Z,2.70
2018-01-18T23:12:35.580Z,2.03
2018-01-18T23:15:01.916Z,3.23
2018-01-18T23:17:28.125Z,1.33
2018-01-18T23:19:55.350Z,5.93
2018-01-18T23:22:21.606Z,1.80
2018-01-18T23:24:48.000Z,3.53
2018-01-18T23:27:14.366Z,1.43
2018-01-18T23:29:40.636Z,1.30
2018-01-18T23:32:07.565Z,1.43
2018-01-18T23:34:34.817Z,0.80
2018-01-18T23:37:01.120Z,0.90
2018-01-18T23:39:27.290Z,1.10
2018-01-18T23:41:54.467Z,1.30
2018-01-18T23:44:20.800Z,0.87
2018-01-18T23:46:46.948Z,1.20
2018-01-18T23:49:13.142Z,1.80
2018-01-18T23:51:39.398Z,1.00
2018-01-18T23:54:05.581Z,1.23
2018-01-18T23:56:31.841Z,1.10
2018-01-18T23:58:57.943Z,2.30
